sensor_id;sensor_type;location;lat;lon;timestamp;P1;durP1;ratioP1;P2;durP2;ratioP2
22282;SDS011;11310;51.528;21.204;2023-08-06T00:01:46;15.57;;;7.85;;
22282;SDS011;11310;51.528;21.204;2023-08-06T00:04:16;12.40;;;7.28;;
22282;SDS011;11310;51.528;21.204;2023-08-06T00:06:46;12.57;;;6.82;;
22282;SDS011;11310;51.528;21.204;2023-08-06T00:09:14;12.60;;;7.15;;
22282;SDS011;11310;51.528;21.204;2023-08-06T00:11:43;13.35;;;6.72;;
22282;SDS011;11310;51.528;21.204;2023-08-06T00:14:13;12.43;;;7.07;;
22282;SDS011;11310;51.528;21.204;2023-08-06T00:16:44;12.25;;;6.32;;
22282;SDS011;11310;51.528;21.204;2023-08-06T00:19:14;12.45;;;6.40;;
22282;SDS011;11310;51.528;21.204;2023-08-06T00:21:44;12.82;;;6.75;;
22282;SDS011;11310;51.528;21.204;2023-08-06T00:24:12;12.02;;;6.40;;
22282;SDS011;11310;51.528;21.204;2023-08-06T00:26:41;10.18;;;5.72;;
22282;SDS011;11310;51.528;21.204;2023-08-06T00:29:09;12.00;;;5.60;;
22282;SDS011;11310;51.528;21.204;2023-08-06T00:31:38;10.43;;;5.22;;
22282;SDS011;11310;51.528;21.204;2023-08-06T00:34:07;9.60;;;5.38;;
22282;SDS011;11310;51.528;21.204;2023-08-06T00:36:36;10.23;;;6.03;;
22282;SDS011;11310;51.528;21.204;2023-08-06T00:39:07;10.23;;;5.30;;
22282;SDS011;11310;51.528;21.204;2023-08-06T00:41:35;10.82;;;5.43;;
22282;SDS011;11310;51.528;21.204;2023-08-06T00:44:05;10.07;;;5.80;;
22282;SDS011;11310;51.528;21.204;2023-08-06T00:46:33;13.95;;;5.43;;
22282;SDS011;11310;51.528;21.204;2023-08-06T00:49:02;9.55;;;5.10;;
22282;SDS011;11310;51.528;21.204;2023-08-06T00:51:31;8.48;;;4.93;;
22282;SDS011;11310;51.528;21.204;2023-08-06T00:54:02;9.60;;;5.50;;
22282;SDS011;11310;51.528;21.204;2023-08-06T00:56:32;12.43;;;5.85;;
22282;SDS011;11310;51.528;21.204;2023-08-06T00:59:03;9.18;;;5.07;;
22282;SDS011;11310;51.528;21.204;2023-08-06T01:01:34;8.38;;;5.07;;
22282;SDS011;11310;51.528;21.204;2023-08-06T01:04:03;11.15;;;5.50;;
22282;SDS011;11310;51.528;21.204;2023-08-06T01:06:35;12.45;;;6.70;;
22282;SDS011;11310;51.528;21.204;2023-08-06T01:09:10;10.07;;;5.53;;
22282;SDS011;11310;51.528;21.204;2023-08-06T01:11:54;9.23;;;5.18;;
22282;SDS011;11310;51.528;21.204;2023-08-06T01:14:34;11.88;;;5.75;;
22282;SDS011;11310;51.528;21.204;2023-08-06T01:17:13;9.00;;;5.25;;
22282;SDS011;11310;51.528;21.204;2023-08-06T01:19:42;10.13;;;5.45;;
22282;SDS011;11310;51.528;21.204;2023-08-06T01:22:13;11.95;;;5.55;;
22282;SDS011;11310;51.528;21.204;2023-08-06T01:24:41;10.43;;;5.43;;
22282;SDS011;11310;51.528;21.204;2023-08-06T01:27:17;10.85;;;6.18;;
22282;SDS011;11310;51.528;21.204;2023-08-06T01:29:56;11.25;;;5.55;;
22282;SDS011;11310;51.528;21.204;2023-08-06T01:32:31;10.30;;;5.63;;
22282;SDS011;11310;51.528;21.204;2023-08-06T01:35:02;10.32;;;5.10;;
22282;SDS011;11310;51.528;21.204;2023-08-06T01:37:33;8.93;;;5.22;;
22282;SDS011;11310;51.528;21.204;2023-08-06T01:40:05;11.38;;;5.93;;
22282;SDS011;11310;51.528;21.204;2023-08-06T01:42:35;10.52;;;5.75;;
22282;SDS011;11310;51.528;21.204;2023-08-06T01:45:03;9.70;;;5.80;;
22282;SDS011;11310;51.528;21.204;2023-08-06T01:47:33;9.30;;;5.43;;
22282;SDS011;11310;51.528;21.204;2023-08-06T01:50:02;10.95;;;5.50;;
22282;SDS011;11310;51.528;21.204;2023-08-06T01:52:31;9.23;;;5.60;;
22282;SDS011;11310;51.528;21.204;2023-08-06T01:55:01;9.90;;;5.80;;
22282;SDS011;11310;51.528;21.204;2023-08-06T01:57:31;10.82;;;5.88;;
22282;SDS011;11310;51.528;21.204;2023-08-06T01:59:59;12.45;;;6.53;;
22282;SDS011;11310;51.528;21.204;2023-08-06T02:02:38;9.95;;;5.68;;
22282;SDS011;11310;51.528;21.204;2023-08-06T02:07:39;10.73;;;5.97;;
22282;SDS011;11310;51.528;21.204;2023-08-06T02:10:09;12.43;;;6.57;;
22282;SDS011;11310;51.528;21.204;2023-08-06T02:12:38;12.02;;;6.20;;
22282;SDS011;11310;51.528;21.204;2023-08-06T02:15:07;10.48;;;6.22;;
22282;SDS011;11310;51.528;21.204;2023-08-06T02:17:37;12.48;;;6.45;;
22282;SDS011;11310;51.528;21.204;2023-08-06T02:20:06;10.70;;;6.13;;
22282;SDS011;11310;51.528;21.204;2023-08-06T02:22:35;12.13;;;6.57;;
22282;SDS011;11310;51.528;21.204;2023-08-06T02:25:04;11.93;;;6.90;;
22282;SDS011;11310;51.528;21.204;2023-08-06T02:27:36;11.52;;;5.93;;
22282;SDS011;11310;51.528;21.204;2023-08-06T02:30:06;9.98;;;5.75;;
22282;SDS011;11310;51.528;21.204;2023-08-06T02:32:35;12.30;;;6.30;;
22282;SDS011;11310;51.528;21.204;2023-08-06T02:35:04;10.63;;;6.05;;
22282;SDS011;11310;51.528;21.204;2023-08-06T02:37:34;10.73;;;6.22;;
22282;SDS011;11310;51.528;21.204;2023-08-06T02:40:03;15.45;;;5.97;;
22282;SDS011;11310;51.528;21.204;2023-08-06T02:42:32;11.82;;;6.28;;
22282;SDS011;11310;51.528;21.204;2023-08-06T02:45:03;11.07;;;5.85;;
22282;SDS011;11310;51.528;21.204;2023-08-06T02:47:34;9.75;;;5.85;;
22282;SDS011;11310;51.528;21.204;2023-08-06T02:50:03;10.07;;;5.95;;
22282;SDS011;11310;51.528;21.204;2023-08-06T02:52:32;10.52;;;5.90;;
22282;SDS011;11310;51.528;21.204;2023-08-06T02:55:00;11.68;;;6.32;;
22282;SDS011;11310;51.528;21.204;2023-08-06T02:57:31;11.48;;;6.65;;
22282;SDS011;11310;51.528;21.204;2023-08-06T02:59:59;9.13;;;5.65;;
22282;SDS011;11310;51.528;21.204;2023-08-06T03:02:30;10.95;;;6.28;;
22282;SDS011;11310;51.528;21.204;2023-08-06T03:05:13;12.13;;;6.43;;
22282;SDS011;11310;51.528;21.204;2023-08-06T03:07:45;11.55;;;6.78;;
22282;SDS011;11310;51.528;21.204;2023-08-06T03:10:20;10.48;;;6.20;;
22282;SDS011;11310;51.528;21.204;2023-08-06T03:12:51;12.37;;;6.67;;
22282;SDS011;11310;51.528;21.204;2023-08-06T03:15:20;11.98;;;7.38;;
22282;SDS011;11310;51.528;21.204;2023-08-06T03:17:52;11.55;;;7.10;;
22282;SDS011;11310;51.528;21.204;2023-08-06T03:20:25;14.25;;;7.85;;
22282;SDS011;11310;51.528;21.204;2023-08-06T03:22:54;13.95;;;6.55;;
22282;SDS011;11310;51.528;21.204;2023-08-06T03:25:22;12.50;;;7.57;;
22282;SDS011;11310;51.528;21.204;2023-08-06T03:27:51;14.65;;;7.72;;
22282;SDS011;11310;51.528;21.204;2023-08-06T03:30:20;12.40;;;7.15;;
22282;SDS011;11310;51.528;21.204;2023-08-06T03:32:52;12.90;;;7.63;;
22282;SDS011;11310;51.528;21.204;2023-08-06T03:35:21;12.45;;;7.57;;
22282;SDS011;11310;51.528;21.204;2023-08-06T03:37:50;14.60;;;7.90;;
22282;SDS011;11310;51.528;21.204;2023-08-06T03:40:19;16.33;;;8.02;;
22282;SDS011;11310;51.528;21.204;2023-08-06T03:42:47;14.65;;;8.68;;
22282;SDS011;11310;51.528;21.204;2023-08-06T03:45:16;14.95;;;9.20;;
22282;SDS011;11310;51.528;21.204;2023-08-06T03:47:45;17.17;;;8.63;;
22282;SDS011;11310;51.528;21.204;2023-08-06T03:50:16;15.02;;;8.55;;
22282;SDS011;11310;51.528;21.204;2023-08-06T03:52:46;17.42;;;8.75;;
22282;SDS011;11310;51.528;21.204;2023-08-06T03:55:15;16.02;;;8.80;;
22282;SDS011;11310;51.528;21.204;2023-08-06T03:57:43;15.68;;;8.80;;
22282;SDS011;11310;51.528;21.204;2023-08-06T04:00:12;15.88;;;9.00;;
22282;SDS011;11310;51.528;21.204;2023-08-06T04:02:41;19.13;;;9.68;;
22282;SDS011;11310;51.528;21.204;2023-08-06T04:05:13;16.30;;;9.02;;
22282;SDS011;11310;51.528;21.204;2023-08-06T04:07:43;17.10;;;9.75;;
22282;SDS011;11310;51.528;21.204;2023-08-06T04:10:13;18.17;;;8.95;;
22282;SDS011;11310;51.528;21.204;2023-08-06T04:12:42;17.55;;;8.95;;
22282;SDS011;11310;51.528;21.204;2023-08-06T04:15:11;16.73;;;9.45;;
22282;SDS011;11310;51.528;21.204;2023-08-06T04:17:39;17.88;;;9.68;;
22282;SDS011;11310;51.528;21.204;2023-08-06T04:20:09;19.30;;;10.40;;
22282;SDS011;11310;51.528;21.204;2023-08-06T04:22:38;17.88;;;10.10;;
22282;SDS011;11310;51.528;21.204;2023-08-06T04:25:09;18.02;;;10.20;;
22282;SDS011;11310;51.528;21.204;2023-08-06T04:27:38;16.90;;;9.63;;
22282;SDS011;11310;51.528;21.204;2023-08-06T04:30:10;17.95;;;10.13;;
22282;SDS011;11310;51.528;21.204;2023-08-06T04:32:41;17.85;;;9.65;;
22282;SDS011;11310;51.528;21.204;2023-08-06T04:35:10;19.60;;;9.93;;
22282;SDS011;11310;51.528;21.204;2023-08-06T04:37:40;15.55;;;9.85;;
22282;SDS011;11310;51.528;21.204;2023-08-06T04:40:11;18.13;;;9.63;;
22282;SDS011;11310;51.528;21.204;2023-08-06T04:42:40;14.13;;;8.88;;
22282;SDS011;11310;51.528;21.204;2023-08-06T04:45:09;16.13;;;9.80;;
22282;SDS011;11310;51.528;21.204;2023-08-06T04:47:39;14.07;;;9.32;;
22282;SDS011;11310;51.528;21.204;2023-08-06T04:50:08;13.32;;;8.68;;
22282;SDS011;11310;51.528;21.204;2023-08-06T04:52:37;15.05;;;9.32;;
22282;SDS011;11310;51.528;21.204;2023-08-06T04:55:05;16.42;;;9.07;;
22282;SDS011;11310;51.528;21.204;2023-08-06T04:57:35;15.15;;;9.85;;
22282;SDS011;11310;51.528;21.204;2023-08-06T05:00:05;17.33;;;9.88;;
22282;SDS011;11310;51.528;21.204;2023-08-06T05:02:34;13.43;;;9.20;;
22282;SDS011;11310;51.528;21.204;2023-08-06T05:05:05;15.23;;;9.30;;
22282;SDS011;11310;51.528;21.204;2023-08-06T05:07:34;12.63;;;9.15;;
22282;SDS011;11310;51.528;21.204;2023-08-06T05:10:03;15.43;;;8.77;;
22282;SDS011;11310;51.528;21.204;2023-08-06T05:12:32;16.08;;;8.93;;
22282;SDS011;11310;51.528;21.204;2023-08-06T05:15:03;15.13;;;8.70;;
22282;SDS011;11310;51.528;21.204;2023-08-06T05:17:32;14.63;;;8.50;;
22282;SDS011;11310;51.528;21.204;2023-08-06T05:20:01;15.55;;;8.55;;
22282;SDS011;11310;51.528;21.204;2023-08-06T05:22:30;14.70;;;8.43;;
22282;SDS011;11310;51.528;21.204;2023-08-06T05:24:59;12.00;;;7.65;;
22282;SDS011;11310;51.528;21.204;2023-08-06T05:27:28;12.70;;;8.48;;
22282;SDS011;11310;51.528;21.204;2023-08-06T05:29:57;11.48;;;7.95;;
22282;SDS011;11310;51.528;21.204;2023-08-06T05:32:27;12.45;;;8.13;;
22282;SDS011;11310;51.528;21.204;2023-08-06T05:34:56;14.30;;;8.48;;
22282;SDS011;11310;51.528;21.204;2023-08-06T05:37:24;12.80;;;7.72;;
22282;SDS011;11310;51.528;21.204;2023-08-06T05:39:53;12.50;;;7.63;;
22282;SDS011;11310;51.528;21.204;2023-08-06T05:42:22;10.90;;;7.38;;
22282;SDS011;11310;51.528;21.204;2023-08-06T05:44:51;13.55;;;8.52;;
22282;SDS011;11310;51.528;21.204;2023-08-06T05:47:20;13.15;;;7.90;;
22282;SDS011;11310;51.528;21.204;2023-08-06T05:49:50;12.75;;;7.82;;
22282;SDS011;11310;51.528;21.204;2023-08-06T05:52:18;10.80;;;7.57;;
22282;SDS011;11310;51.528;21.204;2023-08-06T05:54:47;12.55;;;7.40;;
22282;SDS011;11310;51.528;21.204;2023-08-06T05:57:15;13.40;;;7.55;;
22282;SDS011;11310;51.528;21.204;2023-08-06T05:59:44;13.15;;;7.32;;
22282;SDS011;11310;51.528;21.204;2023-08-06T06:02:13;11.60;;;7.35;;
22282;SDS011;11310;51.528;21.204;2023-08-06T06:04:42;13.90;;;7.40;;
22282;SDS011;11310;51.528;21.204;2023-08-06T06:07:12;12.45;;;6.82;;
22282;SDS011;11310;51.528;21.204;2023-08-06T06:09:41;11.88;;;7.10;;
22282;SDS011;11310;51.528;21.204;2023-08-06T06:12:10;10.70;;;7.22;;
22282;SDS011;11310;51.528;21.204;2023-08-06T06:14:39;15.50;;;7.43;;
22282;SDS011;11310;51.528;21.204;2023-08-06T06:17:08;10.88;;;7.25;;
22282;SDS011;11310;51.528;21.204;2023-08-06T06:19:36;12.77;;;7.18;;
22282;SDS011;11310;51.528;21.204;2023-08-06T06:22:05;12.63;;;7.55;;
22282;SDS011;11310;51.528;21.204;2023-08-06T06:24:35;11.48;;;7.85;;
22282;SDS011;11310;51.528;21.204;2023-08-06T06:27:04;10.98;;;6.57;;
22282;SDS011;11310;51.528;21.204;2023-08-06T06:29:33;11.18;;;6.97;;
22282;SDS011;11310;51.528;21.204;2023-08-06T06:32:02;12.30;;;6.80;;
22282;SDS011;11310;51.528;21.204;2023-08-06T06:34:31;9.55;;;6.70;;
22282;SDS011;11310;51.528;21.204;2023-08-06T06:36:59;10.00;;;6.68;;
22282;SDS011;11310;51.528;21.204;2023-08-06T06:39:28;10.85;;;6.70;;
22282;SDS011;11310;51.528;21.204;2023-08-06T06:41:58;11.13;;;7.03;;
22282;SDS011;11310;51.528;21.204;2023-08-06T06:44:35;11.82;;;6.53;;
22282;SDS011;11310;51.528;21.204;2023-08-06T06:47:03;10.32;;;6.80;;
22282;SDS011;11310;51.528;21.204;2023-08-06T06:49:32;11.50;;;7.70;;
22282;SDS011;11310;51.528;21.204;2023-08-06T06:52:01;12.55;;;6.88;;
22282;SDS011;11310;51.528;21.204;2023-08-06T06:54:30;10.63;;;7.10;;
22282;SDS011;11310;51.528;21.204;2023-08-06T06:57:00;11.30;;;7.00;;
22282;SDS011;11310;51.528;21.204;2023-08-06T06:59:29;15.73;;;7.07;;
22282;SDS011;11310;51.528;21.204;2023-08-06T07:01:58;11.80;;;7.15;;
22282;SDS011;11310;51.528;21.204;2023-08-06T07:04:27;11.45;;;6.97;;
22282;SDS011;11310;51.528;21.204;2023-08-06T07:06:56;9.75;;;6.65;;
22282;SDS011;11310;51.528;21.204;2023-08-06T07:09:24;10.80;;;6.28;;
22282;SDS011;11310;51.528;21.204;2023-08-06T07:11:53;9.95;;;6.47;;
22282;SDS011;11310;51.528;21.204;2023-08-06T07:14:24;15.15;;;6.40;;
22282;SDS011;11310;51.528;21.204;2023-08-06T07:16:54;11.90;;;6.55;;
22282;SDS011;11310;51.528;21.204;2023-08-06T07:19:23;12.82;;;7.15;;
22282;SDS011;11310;51.528;21.204;2023-08-06T07:21:52;15.63;;;6.65;;
22282;SDS011;11310;51.528;21.204;2023-08-06T07:24:23;11.60;;;6.38;;
22282;SDS011;11310;51.528;21.204;2023-08-06T07:26:52;10.23;;;6.38;;
22282;SDS011;11310;51.528;21.204;2023-08-06T07:29:20;11.45;;;6.03;;
22282;SDS011;11310;51.528;21.204;2023-08-06T07:31:50;10.32;;;6.03;;
22282;SDS011;11310;51.528;21.204;2023-08-06T07:34:20;9.75;;;5.80;;
22282;SDS011;11310;51.528;21.204;2023-08-06T07:36:48;10.15;;;6.18;;
22282;SDS011;11310;51.528;21.204;2023-08-06T07:39:17;9.40;;;6.07;;
22282;SDS011;11310;51.528;21.204;2023-08-06T07:41:45;10.98;;;6.28;;
22282;SDS011;11310;51.528;21.204;2023-08-06T07:44:14;12.40;;;6.05;;
22282;SDS011;11310;51.528;21.204;2023-08-06T07:46:43;8.70;;;5.90;;
22282;SDS011;11310;51.528;21.204;2023-08-06T07:49:13;13.55;;;6.22;;
22282;SDS011;11310;51.528;21.204;2023-08-06T07:51:42;8.77;;;6.07;;
22282;SDS011;11310;51.528;21.204;2023-08-06T07:56:42;10.40;;;5.75;;
22282;SDS011;11310;51.528;21.204;2023-08-06T07:59:12;11.70;;;5.40;;
22282;SDS011;11310;51.528;21.204;2023-08-06T08:01:41;9.65;;;5.63;;
22282;SDS011;11310;51.528;21.204;2023-08-06T08:04:10;9.10;;;5.80;;
22282;SDS011;11310;51.528;21.204;2023-08-06T08:06:40;10.30;;;5.93;;
22282;SDS011;11310;51.528;21.204;2023-08-06T08:09:10;9.05;;;5.43;;
22282;SDS011;11310;51.528;21.204;2023-08-06T08:11:40;11.10;;;4.82;;
22282;SDS011;11310;51.528;21.204;2023-08-06T08:14:09;10.43;;;5.38;;
22282;SDS011;11310;51.528;21.204;2023-08-06T08:16:38;8.00;;;4.97;;
22282;SDS011;11310;51.528;21.204;2023-08-06T08:19:07;10.32;;;5.32;;
22282;SDS011;11310;51.528;21.204;2023-08-06T08:21:36;13.00;;;4.95;;
22282;SDS011;11310;51.528;21.204;2023-08-06T08:24:06;7.75;;;4.53;;
22282;SDS011;11310;51.528;21.204;2023-08-06T08:26:36;8.47;;;4.90;;
22282;SDS011;11310;51.528;21.204;2023-08-06T08:29:05;9.88;;;5.03;;
22282;SDS011;11310;51.528;21.204;2023-08-06T08:31:34;10.05;;;5.13;;
22282;SDS011;11310;51.528;21.204;2023-08-06T08:34:06;8.77;;;5.18;;
22282;SDS011;11310;51.528;21.204;2023-08-06T08:36:35;8.18;;;4.80;;
22282;SDS011;11310;51.528;21.204;2023-08-06T08:39:04;7.65;;;4.72;;
22282;SDS011;11310;51.528;21.204;2023-08-06T08:41:35;8.43;;;4.53;;
22282;SDS011;11310;51.528;21.204;2023-08-06T08:44:04;9.45;;;4.65;;
22282;SDS011;11310;51.528;21.204;2023-08-06T08:46:37;7.28;;;4.53;;
22282;SDS011;11310;51.528;21.204;2023-08-06T08:49:08;7.15;;;4.70;;
22282;SDS011;11310;51.528;21.204;2023-08-06T08:51:37;13.32;;;5.32;;
22282;SDS011;11310;51.528;21.204;2023-08-06T08:54:07;10.15;;;4.53;;
22282;SDS011;11310;51.528;21.204;2023-08-06T08:56:40;8.50;;;3.95;;
22282;SDS011;11310;51.528;21.204;2023-08-06T08:59:09;9.10;;;4.45;;
22282;SDS011;11310;51.528;21.204;2023-08-06T09:01:38;8.20;;;4.68;;
22282;SDS011;11310;51.528;21.204;2023-08-06T09:04:10;8.90;;;4.68;;
22282;SDS011;11310;51.528;21.204;2023-08-06T09:06:40;7.03;;;4.65;;
22282;SDS011;11310;51.528;21.204;2023-08-06T09:09:12;7.72;;;4.85;;
22282;SDS011;11310;51.528;21.204;2023-08-06T09:11:46;8.90;;;4.70;;
22282;SDS011;11310;51.528;21.204;2023-08-06T09:14:17;10.23;;;4.60;;
22282;SDS011;11310;51.528;21.204;2023-08-06T09:16:47;8.65;;;4.90;;
22282;SDS011;11310;51.528;21.204;2023-08-06T09:19:16;8.10;;;4.13;;
22282;SDS011;11310;51.528;21.204;2023-08-06T09:21:45;9.15;;;4.13;;
22282;SDS011;11310;51.528;21.204;2023-08-06T09:24:16;9.85;;;4.32;;
22282;SDS011;11310;51.528;21.204;2023-08-06T09:26:46;7.50;;;4.30;;
22282;SDS011;11310;51.528;21.204;2023-08-06T09:29:15;7.63;;;4.30;;
22282;SDS011;11310;51.528;21.204;2023-08-06T09:31:45;8.52;;;4.20;;
22282;SDS011;11310;51.528;21.204;2023-08-06T09:34:15;10.68;;;4.47;;
22282;SDS011;11310;51.528;21.204;2023-08-06T09:36:46;11.57;;;4.15;;
22282;SDS011;11310;51.528;21.204;2023-08-06T09:39:16;10.52;;;4.68;;
22282;SDS011;11310;51.528;21.204;2023-08-06T09:41:47;8.93;;;4.22;;
22282;SDS011;11310;51.528;21.204;2023-08-06T09:44:17;6.65;;;4.13;;
22282;SDS011;11310;51.528;21.204;2023-08-06T09:46:49;6.95;;;4.15;;
22282;SDS011;11310;51.528;21.204;2023-08-06T09:49:20;11.95;;;4.50;;
22282;SDS011;11310;51.528;21.204;2023-08-06T09:51:50;8.20;;;4.13;;
22282;SDS011;11310;51.528;21.204;2023-08-06T09:54:23;11.48;;;5.13;;
22282;SDS011;11310;51.528;21.204;2023-08-06T09:56:56;9.83;;;4.50;;
22282;SDS011;11310;51.528;21.204;2023-08-06T09:59:25;7.60;;;4.60;;
22282;SDS011;11310;51.528;21.204;2023-08-06T10:01:54;6.97;;;4.68;;
22282;SDS011;11310;51.528;21.204;2023-08-06T10:04:24;8.88;;;4.13;;
22282;SDS011;11310;51.528;21.204;2023-08-06T10:07:04;7.32;;;4.68;;
22282;SDS011;11310;51.528;21.204;2023-08-06T10:09:32;7.70;;;4.40;;
22282;SDS011;11310;51.528;21.204;2023-08-06T10:12:03;11.38;;;4.68;;
22282;SDS011;11310;51.528;21.204;2023-08-06T10:14:33;13.23;;;4.80;;
22282;SDS011;11310;51.528;21.204;2023-08-06T10:17:05;9.43;;;4.18;;
22282;SDS011;11310;51.528;21.204;2023-08-06T10:19:34;8.73;;;4.30;;
22282;SDS011;11310;51.528;21.204;2023-08-06T10:22:10;9.75;;;4.80;;
22282;SDS011;11310;51.528;21.204;2023-08-06T10:24:47;7.57;;;4.30;;
22282;SDS011;11310;51.528;21.204;2023-08-06T10:27:23;7.30;;;4.53;;
22282;SDS011;11310;51.528;21.204;2023-08-06T10:33:00;8.00;;;4.15;;
22282;SDS011;11310;51.528;21.204;2023-08-06T10:35:30;8.70;;;4.60;;
22282;SDS011;11310;51.528;21.204;2023-08-06T10:38:03;7.40;;;4.57;;
22282;SDS011;11310;51.528;21.204;2023-08-06T10:40:32;7.82;;;4.40;;
22282;SDS011;11310;51.528;21.204;2023-08-06T10:43:03;10.13;;;4.68;;
22282;SDS011;11310;51.528;21.204;2023-08-06T10:45:35;9.15;;;4.03;;
22282;SDS011;11310;51.528;21.204;2023-08-06T10:48:05;6.85;;;4.15;;
22282;SDS011;11310;51.528;21.204;2023-08-06T10:50:34;7.60;;;4.38;;
22282;SDS011;11310;51.528;21.204;2023-08-06T10:53:06;9.93;;;4.72;;
22282;SDS011;11310;51.528;21.204;2023-08-06T10:55:35;7.88;;;3.97;;
22282;SDS011;11310;51.528;21.204;2023-08-06T10:58:07;7.97;;;3.97;;
22282;SDS011;11310;51.528;21.204;2023-08-06T11:00:36;6.35;;;3.97;;
22282;SDS011;11310;51.528;21.204;2023-08-06T11:03:05;7.43;;;4.13;;
22282;SDS011;11310;51.528;21.204;2023-08-06T11:05:34;12.10;;;4.80;;
22282;SDS011;11310;51.528;21.204;2023-08-06T11:08:03;8.00;;;4.43;;
22282;SDS011;11310;51.528;21.204;2023-08-06T11:10:32;6.10;;;4.07;;
22282;SDS011;11310;51.528;21.204;2023-08-06T11:13:17;7.30;;;4.07;;
22282;SDS011;11310;51.528;21.204;2023-08-06T11:15:46;6.50;;;3.97;;
22282;SDS011;11310;51.528;21.204;2023-08-06T11:18:15;7.35;;;4.20;;
22282;SDS011;11310;51.528;21.204;2023-08-06T11:20:45;6.97;;;3.92;;
22282;SDS011;11310;51.528;21.204;2023-08-06T11:23:13;8.52;;;3.83;;
22282;SDS011;11310;51.528;21.204;2023-08-06T11:25:43;7.18;;;3.72;;
22282;SDS011;11310;51.528;21.204;2023-08-06T11:28:13;7.78;;;3.95;;
22282;SDS011;11310;51.528;21.204;2023-08-06T11:30:44;9.43;;;3.67;;
22282;SDS011;11310;51.528;21.204;2023-08-06T11:33:12;9.10;;;3.67;;
22282;SDS011;11310;51.528;21.204;2023-08-06T11:35:42;6.25;;;3.55;;
22282;SDS011;11310;51.528;21.204;2023-08-06T11:38:11;7.68;;;3.90;;
22282;SDS011;11310;51.528;21.204;2023-08-06T11:40:44;6.65;;;4.07;;
22282;SDS011;11310;51.528;21.204;2023-08-06T11:43:13;8.60;;;4.57;;
22282;SDS011;11310;51.528;21.204;2023-08-06T11:45:43;6.25;;;4.25;;
22282;SDS011;11310;51.528;21.204;2023-08-06T11:48:12;12.32;;;4.22;;
22282;SDS011;11310;51.528;21.204;2023-08-06T11:50:42;9.20;;;3.85;;
22282;SDS011;11310;51.528;21.204;2023-08-06T11:53:12;9.98;;;4.20;;
22282;SDS011;11310;51.528;21.204;2023-08-06T11:55:41;10.25;;;3.40;;
22282;SDS011;11310;51.528;21.204;2023-08-06T11:58:10;5.10;;;3.80;;
22282;SDS011;11310;51.528;21.204;2023-08-06T12:00:39;5.75;;;3.20;;
22282;SDS011;11310;51.528;21.204;2023-08-06T12:03:10;8.00;;;3.45;;
22282;SDS011;11310;51.528;21.204;2023-08-06T12:05:39;7.90;;;3.20;;
22282;SDS011;11310;51.528;21.204;2023-08-06T12:08:08;7.28;;;3.17;;
22282;SDS011;11310;51.528;21.204;2023-08-06T12:10:42;7.55;;;3.40;;
22282;SDS011;11310;51.528;21.204;2023-08-06T12:13:11;6.78;;;3.63;;
22282;SDS011;11310;51.528;21.204;2023-08-06T12:15:40;7.75;;;3.42;;
22282;SDS011;11310;51.528;21.204;2023-08-06T12:18:11;7.70;;;3.78;;
22282;SDS011;11310;51.528;21.204;2023-08-06T12:20:39;7.50;;;3.78;;
22282;SDS011;11310;51.528;21.204;2023-08-06T12:23:09;8.57;;;3.85;;
22282;SDS011;11310;51.528;21.204;2023-08-06T12:25:44;8.60;;;4.20;;
22282;SDS011;11310;51.528;21.204;2023-08-06T12:28:13;7.75;;;4.28;;
22282;SDS011;11310;51.528;21.204;2023-08-06T12:30:41;6.88;;;3.97;;
22282;SDS011;11310;51.528;21.204;2023-08-06T12:33:14;7.05;;;4.03;;
22282;SDS011;11310;51.528;21.204;2023-08-06T12:35:43;8.05;;;3.75;;
22282;SDS011;11310;51.528;21.204;2023-08-06T12:38:11;9.73;;;4.25;;
22282;SDS011;11310;51.528;21.204;2023-08-06T12:40:40;7.68;;;4.07;;
22282;SDS011;11310;51.528;21.204;2023-08-06T12:43:10;8.90;;;4.30;;
22282;SDS011;11310;51.528;21.204;2023-08-06T12:45:38;7.85;;;4.40;;
22282;SDS011;11310;51.528;21.204;2023-08-06T12:48:07;8.65;;;5.05;;
22282;SDS011;11310;51.528;21.204;2023-08-06T12:50:37;10.02;;;4.68;;
22282;SDS011;11310;51.528;21.204;2023-08-06T12:53:06;7.53;;;4.35;;
22282;SDS011;11310;51.528;21.204;2023-08-06T12:55:34;7.93;;;4.70;;
22282;SDS011;11310;51.528;21.204;2023-08-06T12:58:03;9.30;;;4.43;;
22282;SDS011;11310;51.528;21.204;2023-08-06T13:00:32;7.85;;;4.30;;
22282;SDS011;11310;51.528;21.204;2023-08-06T13:03:00;11.63;;;4.32;;
22282;SDS011;11310;51.528;21.204;2023-08-06T13:05:29;11.98;;;4.43;;
22282;SDS011;11310;51.528;21.204;2023-08-06T13:07:59;8.15;;;4.50;;
22282;SDS011;11310;51.528;21.204;2023-08-06T13:10:28;7.85;;;4.32;;
22282;SDS011;11310;51.528;21.204;2023-08-06T13:12:58;6.43;;;4.35;;
22282;SDS011;11310;51.528;21.204;2023-08-06T13:15:27;7.95;;;4.55;;
22282;SDS011;11310;51.528;21.204;2023-08-06T13:17:55;9.70;;;4.35;;
22282;SDS011;11310;51.528;21.204;2023-08-06T13:20:24;8.27;;;3.85;;
22282;SDS011;11310;51.528;21.204;2023-08-06T13:22:54;5.20;;;3.40;;
22282;SDS011;11310;51.528;21.204;2023-08-06T13:25:24;9.25;;;3.08;;
22282;SDS011;11310;51.528;21.204;2023-08-06T13:27:52;6.00;;;3.53;;
22282;SDS011;11310;51.528;21.204;2023-08-06T13:30:21;5.60;;;3.50;;
22282;SDS011;11310;51.528;21.204;2023-08-06T13:32:50;7.35;;;3.40;;
22282;SDS011;11310;51.528;21.204;2023-08-06T13:35:19;6.63;;;3.20;;
22282;SDS011;11310;51.528;21.204;2023-08-06T13:37:47;5.45;;;3.22;;
22282;SDS011;11310;51.528;21.204;2023-08-06T13:40:16;7.22;;;3.10;;
22282;SDS011;11310;51.528;21.204;2023-08-06T13:42:46;8.00;;;3.78;;
22282;SDS011;11310;51.528;21.204;2023-08-06T13:45:14;5.25;;;2.72;;
22282;SDS011;11310;51.528;21.204;2023-08-06T13:47:43;5.13;;;3.08;;
22282;SDS011;11310;51.528;21.204;2023-08-06T13:50:11;5.65;;;3.00;;
22282;SDS011;11310;51.528;21.204;2023-08-06T13:52:40;5.35;;;2.63;;
22282;SDS011;11310;51.528;21.204;2023-08-06T13:55:08;6.53;;;2.00;;
22282;SDS011;11310;51.528;21.204;2023-08-06T13:57:37;4.22;;;1.73;;
22282;SDS011;11310;51.528;21.204;2023-08-06T14:00:07;1.38;;;1.02;;
22282;SDS011;11310;51.528;21.204;2023-08-06T14:02:42;4.72;;;0.98;;
22282;SDS011;11310;51.528;21.204;2023-08-06T14:05:11;3.70;;;0.70;;
22282;SDS011;11310;51.528;21.204;2023-08-06T14:07:41;3.42;;;0.90;;
22282;SDS011;11310;51.528;21.204;2023-08-06T14:10:09;2.13;;;0.50;;
22282;SDS011;11310;51.528;21.204;2023-08-06T14:12:38;2.10;;;0.68;;
22282;SDS011;11310;51.528;21.204;2023-08-06T14:15:08;2.05;;;0.57;;
22282;SDS011;11310;51.528;21.204;2023-08-06T14:17:37;2.08;;;0.93;;
22282;SDS011;11310;51.528;21.204;2023-08-06T14:20:08;3.63;;;0.63;;
22282;SDS011;11310;51.528;21.204;2023-08-06T14:22:39;1.75;;;0.55;;
22282;SDS011;11310;51.528;21.204;2023-08-06T14:25:08;1.70;;;0.60;;
22282;SDS011;11310;51.528;21.204;2023-08-06T14:27:36;0.77;;;0.60;;
22282;SDS011;11310;51.528;21.204;2023-08-06T14:30:08;1.58;;;0.70;;
22282;SDS011;11310;51.528;21.204;2023-08-06T14:32:37;2.28;;;0.68;;
22282;SDS011;11310;51.528;21.204;2023-08-06T14:35:07;0.70;;;0.43;;
22282;SDS011;11310;51.528;21.204;2023-08-06T14:37:43;0.80;;;0.45;;
22282;SDS011;11310;51.528;21.204;2023-08-06T14:40:13;1.08;;;0.50;;
22282;SDS011;11310;51.528;21.204;2023-08-06T14:42:42;0.95;;;0.60;;
22282;SDS011;11310;51.528;21.204;2023-08-06T14:45:12;2.65;;;0.50;;
22282;SDS011;11310;51.528;21.204;2023-08-06T14:47:41;1.30;;;0.40;;
22282;SDS011;11310;51.528;21.204;2023-08-06T14:50:10;0.57;;;0.40;;
22282;SDS011;11310;51.528;21.204;2023-08-06T14:52:39;6.47;;;0.50;;